createdAt,value
2023-06-04T00:01:30.224Z,101545.16
2023-06-04T00:03:58.076Z,101543.59
2023-06-04T00:06:25.815Z,101551.72
2023-06-04T00:08:53.754Z,101545.66
2023-06-04T00:11:21.939Z,101541.31
2023-06-04T00:13:49.753Z,101543.28
2023-06-04T00:16:17.407Z,101544.09
2023-06-04T00:18:47.077Z,101544.22
2023-06-04T00:21:14.643Z,101543.38
2023-06-04T00:23:44.275Z,101544.34
2023-06-04T00:26:11.896Z,101540.13
2023-06-04T00:28:43.680Z,101544.84
2023-06-04T00:31:11.450Z,101537.13
2023-06-04T00:33:39.120Z,101540.88
2023-06-04T00:36:08.790Z,101539.31
2023-06-04T00:38:37.725Z,101529.81
2023-06-04T00:41:05.817Z,101538.06
2023-06-04T00:43:34.439Z,101536.63
2023-06-04T00:46:04.082Z,101532.50
2023-06-04T00:48:31.942Z,101535.53
2023-06-04T00:50:59.849Z,101534.09
2023-06-04T00:53:28.984Z,101538.09
2023-06-04T00:55:57.038Z,101519.81
2023-06-04T00:58:25.645Z,101528.16
2023-06-04T01:00:57.580Z,101533.75
2023-06-04T01:03:30.472Z,101528.66
2023-06-04T01:06:03.980Z,101530.84
2023-06-04T01:08:33.271Z,101532.06
2023-06-04T01:11:00.853Z,101526.13
2023-06-04T01:13:28.974Z,101528.16
2023-06-04T01:15:56.598Z,101525.91
2023-06-04T01:18:30.274Z,101524.44
2023-06-04T01:21:01.341Z,101529.97
2023-06-04T01:23:47.869Z,101525.88
2023-06-04T01:26:16.065Z,101527.78
2023-06-04T01:28:46.403Z,101522.00
2023-06-04T01:31:15.726Z,101518.72
2023-06-04T01:33:43.436Z,101517.13
2023-06-04T01:36:13.305Z,101518.22
2023-06-04T01:38:42.246Z,101506.03
2023-06-04T01:41:10.921Z,101510.59
2023-06-04T01:43:39.410Z,101515.19
2023-06-04T01:46:07.941Z,101514.59
2023-06-04T01:48:35.981Z,101511.31
2023-06-04T01:51:04.187Z,101508.03
2023-06-04T01:53:32.254Z,101513.63
2023-06-04T01:56:04.042Z,101513.84
2023-06-04T01:58:33.026Z,101519.41
2023-06-04T02:01:04.421Z,101511.78
2023-06-04T02:03:37.930Z,101518.16
2023-06-04T02:06:08.880Z,101513.22
2023-06-04T02:08:36.941Z,101525.03
2023-06-04T02:11:06.191Z,101519.94
2023-06-04T02:13:33.968Z,101517.66
2023-06-04T02:16:01.793Z,101519.56
2023-06-04T02:18:30.263Z,101526.09
2023-06-04T02:21:01.663Z,101521.00
2023-06-04T02:23:29.435Z,101523.78
2023-06-04T02:25:57.149Z,101523.91
2023-06-04T02:28:26.221Z,101527.50
2023-06-04T02:30:54.273Z,101525.69
2023-06-04T02:33:22.230Z,101525.78
2023-06-04T02:35:51.004Z,101532.09
2023-06-04T02:38:19.300Z,101526.00
2023-06-04T02:40:47.775Z,101526.34
2023-06-04T02:43:16.437Z,101539.00
2023-06-04T02:45:46.292Z,101539.25
2023-06-04T02:48:14.010Z,101537.56
2023-06-04T02:50:43.422Z,101535.97
2023-06-04T02:53:11.053Z,101537.78
2023-06-04T02:55:38.740Z,101538.84
2023-06-04T02:58:06.769Z,101542.50
2023-06-04T03:00:34.496Z,101536.28
2023-06-04T03:03:03.745Z,101544.38
2023-06-04T03:05:33.873Z,101538.22
2023-06-04T03:08:04.617Z,101539.19
2023-06-04T03:10:32.329Z,101541.00
2023-06-04T03:13:00.790Z,101541.13
2023-06-04T03:15:28.409Z,101536.75
2023-06-04T03:17:58.066Z,101536.88
2023-06-04T03:20:27.249Z,101537.81
2023-06-04T03:22:55.260Z,101535.16
2023-06-04T03:25:23.900Z,101533.47
2023-06-04T03:27:51.881Z,101533.59
2023-06-04T03:30:19.961Z,101535.50
2023-06-04T03:32:57.192Z,101528.63
2023-06-04T03:35:27.275Z,101534.91
2023-06-04T03:37:56.296Z,101537.75
2023-06-04T03:40:24.142Z,101538.72
2023-06-04T03:42:52.298Z,101533.63
2023-06-04T03:45:22.096Z,101542.56
2023-06-04T03:47:51.487Z,101541.84
2023-06-04T03:50:20.981Z,101537.47
2023-06-04T03:52:50.291Z,101530.47
2023-06-04T03:55:21.392Z,101537.69
2023-06-04T03:57:52.277Z,101531.66
2023-06-04T04:00:22.160Z,101536.13
2023-06-04T04:02:53.791Z,101537.09
2023-06-04T04:05:27.354Z,101536.31
2023-06-04T04:07:57.276Z,101535.34
2023-06-04T04:10:30.662Z,101533.56
2023-06-04T04:13:00.366Z,101537.09
2023-06-04T04:15:56.143Z,101533.56
2023-06-04T04:18:24.679Z,101538.78
2023-06-04T04:20:53.883Z,101532.50
2023-06-04T04:23:21.957Z,101534.19
2023-06-04T04:25:51.002Z,101539.28
2023-06-04T04:28:20.297Z,101541.84
2023-06-04T04:30:50.002Z,101538.94
2023-06-04T04:33:18.160Z,101538.94
2023-06-04T04:35:50.040Z,101542.13
2023-06-04T04:38:25.297Z,101543.59
2023-06-04T04:41:02.291Z,101546.78
2023-06-04T04:43:31.788Z,101550.91
2023-06-04T04:46:01.450Z,101551.50
2023-06-04T04:48:31.725Z,101550.34
2023-06-04T04:51:00.318Z,101545.53
2023-06-04T04:53:29.061Z,101551.38
2023-06-04T04:55:57.275Z,101547.38
2023-06-04T04:58:26.362Z,101546.22
2023-06-04T05:00:55.958Z,101537.19
2023-06-04T05:03:23.884Z,101544.81
2023-06-04T05:05:51.673Z,101550.75
2023-06-04T05:08:20.614Z,101551.13
2023-06-04T05:10:48.501Z,101558.53
2023-06-04T05:13:16.383Z,101553.00
2023-06-04T05:15:59.294Z,101547.34
2023-06-04T05:18:30.634Z,101544.06
2023-06-04T05:21:03.676Z,101550.50
2023-06-04T05:23:35.297Z,101557.66
2023-06-04T05:26:06.287Z,101553.81
2023-06-04T05:28:34.944Z,101553.09
2023-06-04T05:31:05.609Z,101551.53
2023-06-04T05:39:43.448Z,101546.72
2023-06-04T05:42:16.132Z,101552.28
2023-06-04T05:44:44.801Z,101550.69
2023-06-04T05:47:19.244Z,101549.97
2023-06-04T05:49:47.863Z,101551.88
2023-06-04T05:52:15.977Z,101545.81
2023-06-04T05:54:45.907Z,101551.03
2023-06-04T05:57:14.684Z,101557.19
2023-06-04T05:59:42.477Z,101550.13
2023-06-04T06:02:16.331Z,101552.63
2023-06-04T06:04:49.279Z,101550.63
2023-06-04T06:07:17.284Z,101557.50
2023-06-04T06:09:45.778Z,101561.53
2023-06-04T06:12:13.691Z,101555.88
2023-06-04T06:14:43.622Z,101556.50
2023-06-04T06:17:11.307Z,101558.13
2023-06-04T06:19:39.388Z,101561.41
2023-06-04T06:22:09.273Z,101565.59
2023-06-04T06:24:38.931Z,101568.75
2023-06-04T06:27:08.336Z,101574.00
2023-06-04T06:29:36.852Z,101566.88
2023-06-04T06:32:05.836Z,101567.72
2023-06-04T06:34:34.276Z,101566.63
2023-06-04T06:37:03.656Z,101570.03
2023-06-04T06:39:33.273Z,101570.50
2023-06-04T06:42:01.042Z,101571.06
2023-06-04T06:44:34.736Z,101576.84
2023-06-04T06:47:03.475Z,101571.78
2023-06-04T06:49:31.186Z,101579.94
2023-06-04T06:51:59.440Z,101580.88
2023-06-04T06:54:27.284Z,101586.34
2023-06-04T06:56:57.299Z,101585.75
2023-06-04T06:59:24.900Z,101592.47
2023-06-04T07:01:53.565Z,101592.13
2023-06-04T07:04:21.583Z,101592.69
2023-06-04T07:06:49.221Z,101599.81
2023-06-04T07:09:18.259Z,101590.44
2023-06-04T07:11:47.834Z,101599.81
2023-06-04T07:14:17.271Z,101592.22
2023-06-04T07:16:45.429Z,101594.41
2023-06-04T07:19:13.670Z,101595.38
2023-06-04T07:21:41.370Z,101599.38
2023-06-04T07:24:09.879Z,101591.94
2023-06-04T07:26:38.404Z,101587.16
2023-06-04T07:29:06.373Z,101594.72
2023-06-04T07:31:36.217Z,101590.28
2023-06-04T07:34:04.061Z,101591.03
2023-06-04T07:36:32.000Z,101590.59
2023-06-04T07:39:00.278Z,101588.66
2023-06-04T07:41:27.971Z,101591.44
2023-06-04T07:43:57.296Z,101599.78
2023-06-04T07:46:25.012Z,101600.66
2023-06-04T07:48:54.003Z,101600.84
2023-06-04T07:51:21.827Z,101601.69
2023-06-04T07:53:49.523Z,101596.69
2023-06-04T07:56:19.287Z,101597.69
2023-06-04T07:58:47.807Z,101596.91
2023-06-04T08:01:16.646Z,101599.28
2023-06-04T08:03:44.532Z,101595.06
2023-06-04T08:06:16.311Z,101589.22
2023-06-04T08:08:46.439Z,101589.72
2023-06-04T08:11:16.399Z,101589.88
2023-06-04T08:13:44.315Z,101593.72
2023-06-04T08:16:12.569Z,101596.56
2023-06-04T08:18:41.153Z,101593.13
2023-06-04T08:21:11.749Z,101584.66
2023-06-04T08:23:40.800Z,101592.41
2023-06-04T08:26:09.283Z,101590.38
2023-06-04T08:28:39.533Z,101597.06
2023-06-04T08:31:07.688Z,101591.59
2023-06-04T08:33:35.473Z,101599.00
2023-06-04T08:36:03.225Z,101606.38
2023-06-04T08:38:33.322Z,101597.88
2023-06-04T08:41:11.517Z,101595.81
2023-06-04T08:43:43.301Z,101598.44
2023-06-04T08:46:11.363Z,101593.47
2023-06-04T08:48:39.863Z,101592.59
2023-06-04T08:51:10.296Z,101592.97
2023-06-04T08:53:38.520Z,101590.03
2023-06-04T08:56:08.108Z,101583.53
2023-06-04T08:58:38.279Z,101591.22
2023-06-04T09:01:08.520Z,101591.13
2023-06-04T09:03:39.827Z,101591.03
2023-06-04T09:09:00.191Z,101595.09
2023-06-04T09:11:37.388Z,101601.72
2023-06-04T09:14:09.941Z,101603.03
2023-06-04T09:16:44.904Z,101597.44
2023-06-04T09:19:12.523Z,101600.78
2023-06-04T09:21:50.850Z,101602.31
2023-06-04T09:24:19.364Z,101592.13
2023-06-04T09:26:50.310Z,101600.03
2023-06-04T09:29:19.314Z,101596.59
2023-06-04T09:31:48.470Z,101592.56
2023-06-04T09:34:16.664Z,101600.88
2023-06-04T09:36:44.360Z,101600.06
2023-06-04T09:39:18.528Z,101598.00
2023-06-04T09:41:47.306Z,101602.38
2023-06-04T09:44:16.438Z,101593.88
2023-06-04T09:46:55.687Z,101607.22
2023-06-04T09:49:24.423Z,101597.63
2023-06-04T09:51:56.762Z,101595.19
2023-06-04T09:54:24.361Z,101595.19
2023-06-04T09:56:52.058Z,101598.16
2023-06-04T09:59:22.046Z,101599.28
2023-06-04T10:01:54.443Z,101594.41
2023-06-04T10:04:23.787Z,101599.91
2023-06-04T10:06:55.312Z,101595.22
2023-06-04T10:09:25.382Z,101595.69
2023-06-04T10:11:58.799Z,101588.41
2023-06-04T10:14:43.319Z,101588.50
2023-06-04T10:17:15.743Z,101592.13
2023-06-04T10:19:45.832Z,101589.19
2023-06-04T10:22:20.991Z,101595.94
2023-06-04T10:24:48.592Z,101584.13
2023-06-04T10:27:18.748Z,101586.41
2023-06-04T10:29:48.134Z,101588.34
2023-06-04T10:32:17.141Z,101588.69
2023-06-04T10:34:45.170Z,101590.22
2023-06-04T10:37:21.360Z,101583.56
2023-06-04T10:39:54.028Z,101580.72
2023-06-04T10:42:23.454Z,101586.78
2023-06-04T10:44:57.566Z,101592.88
2023-06-04T10:47:31.546Z,101585.84
2023-06-04T10:50:11.559Z,101578.19
2023-06-04T10:52:41.003Z,101574.69
2023-06-04T10:55:10.324Z,101583.09
2023-06-04T10:57:38.370Z,101580.19
2023-06-04T11:00:11.393Z,101572.31
2023-06-04T11:02:52.480Z,101578.44
2023-06-04T11:05:46.089Z,101583.66
2023-06-04T11:08:15.216Z,101576.34
2023-06-04T11:10:47.303Z,101570.94
2023-06-04T11:13:17.405Z,101581.22
2023-06-04T11:15:49.685Z,101582.88
2023-06-04T11:18:19.111Z,101577.47
2023-06-04T11:20:48.252Z,101579.06
2023-06-04T11:23:17.375Z,101576.34
2023-06-04T11:25:46.461Z,101567.19
2023-06-04T11:28:19.045Z,101564.31
2023-06-04T11:30:58.263Z,101566.44
2023-06-04T11:33:27.344Z,101562.69
2023-06-04T11:35:54.946Z,101559.97
2023-06-04T11:38:22.832Z,101567.69
2023-06-04T11:40:57.700Z,101567.13
2023-06-04T11:43:26.847Z,101567.16
2023-06-04T11:45:56.051Z,101570.50
2023-06-04T11:48:24.095Z,101560.69
2023-06-04T11:50:51.967Z,101568.25
2023-06-04T11:53:20.135Z,101560.09
2023-06-04T11:55:48.993Z,101556.09
2023-06-04T11:58:41.307Z,101551.31
2023-06-04T12:01:11.119Z,101566.38
2023-06-04T12:03:39.911Z,101555.53
2023-06-04T12:06:16.649Z,101552.63
2023-06-04T12:08:49.242Z,101557.66
2023-06-04T12:11:28.873Z,101550.97
2023-06-04T12:13:58.337Z,101549.72
2023-06-04T12:16:29.378Z,101552.88
2023-06-04T12:19:10.795Z,101557.47
2023-06-04T12:21:39.752Z,101551.19
2023-06-04T12:24:12.087Z,101550.16
2023-06-04T12:26:41.725Z,101546.81
2023-06-04T12:29:13.448Z,101543.91
2023-06-04T12:31:42.829Z,101543.91
2023-06-04T12:34:11.130Z,101534.91
2023-06-04T12:36:42.336Z,101545.56
2023-06-04T12:39:10.131Z,101538.69
2023-06-04T12:41:37.787Z,101538.09
2023-06-04T12:44:05.699Z,101534.34
2023-06-04T12:46:34.058Z,101545.59
2023-06-04T12:49:03.078Z,101544.16
2023-06-04T12:51:31.327Z,101547.50
2023-06-04T12:53:59.398Z,101537.66
2023-06-04T12:56:53.060Z,101536.22
2023-06-04T12:59:21.417Z,101538.31
2023-06-04T13:01:49.172Z,101537.88
2023-06-04T13:04:19.512Z,101533.72
2023-06-04T13:06:47.971Z,101527.44
2023-06-04T13:09:15.883Z,101532.66
2023-06-04T13:11:44.908Z,101528.03
2023-06-04T13:14:13.209Z,101525.75
2023-06-04T13:16:42.485Z,101527.19
2023-06-04T13:19:38.068Z,101522.38
2023-06-04T13:22:05.920Z,101520.25
2023-06-04T13:24:33.595Z,101522.13
2023-06-04T13:27:02.350Z,101522.38
2023-06-04T13:29:34.593Z,101530.31
2023-06-04T13:32:03.455Z,101526.97
2023-06-04T13:34:33.379Z,101518.19
2023-06-04T13:37:28.343Z,101521.09
2023-06-04T13:39:55.917Z,101520.69
2023-06-04T13:42:23.566Z,101524.19
2023-06-04T13:44:51.432Z,101517.25
2023-06-04T13:47:19.808Z,101520.59
2023-06-04T13:49:47.465Z,101512.97
2023-06-04T13:52:15.431Z,101518.56
2023-06-04T13:54:45.592Z,101526.59
2023-06-04T13:57:13.939Z,101528.28
2023-06-04T13:59:42.677Z,101519.88
2023-06-04T14:02:10.553Z,101511.91
2023-06-04T14:04:38.359Z,101515.66
2023-06-04T14:07:07.582Z,101511.22
2023-06-04T14:09:36.205Z,101509.19
2023-06-04T14:12:06.522Z,101499.94
2023-06-04T14:14:37.983Z,101505.16
2023-06-04T14:17:07.368Z,101499.09
2023-06-04T14:19:35.457Z,101508.25
2023-06-04T14:22:03.921Z,101501.94
2023-06-04T14:24:33.372Z,101502.94
2023-06-04T14:27:02.003Z,101490.19
2023-06-04T14:29:31.087Z,101489.06
2023-06-04T14:31:59.663Z,101487.38
2023-06-04T14:34:27.519Z,101492.47
2023-06-04T14:36:58.565Z,101490.50
2023-06-04T14:39:26.359Z,101486.66
2023-06-04T14:41:54.226Z,101488.69
2023-06-04T14:44:22.389Z,101489.84
2023-06-04T14:46:53.144Z,101486.81
2023-06-04T14:49:21.871Z,101482.50
2023-06-04T14:51:49.667Z,101479.31
2023-06-04T14:54:17.875Z,101484.50
2023-06-04T14:56:46.409Z,101478.50
2023-06-04T14:59:14.000Z,101487.00
2023-06-04T15:01:42.613Z,101484.28
2023-06-04T15:04:12.514Z,101489.50
2023-06-04T15:06:40.622Z,101478.97
2023-06-04T15:09:11.777Z,101478.16
2023-06-04T15:11:41.420Z,101475.66
2023-06-04T15:14:09.059Z,101479.56
2023-06-04T15:16:36.705Z,101481.22
2023-06-04T15:19:04.507Z,101479.00
2023-06-04T15:21:36.072Z,101477.19
2023-06-04T15:24:03.813Z,101470.22
2023-06-04T15:26:32.506Z,101477.44
2023-06-04T15:29:00.738Z,101460.25
2023-06-04T15:31:28.357Z,101467.34
2023-06-04T15:36:49.066Z,101462.03
2023-06-04T15:39:16.944Z,101468.75
2023-06-04T15:41:44.749Z,101468.50
2023-06-04T15:44:12.507Z,101460.19
2023-06-04T15:46:40.168Z,101465.16
2023-06-04T15:49:09.022Z,101465.41
2023-06-04T15:51:37.400Z,101462.06
2023-06-04T15:54:06.480Z,101460.78
2023-06-04T15:56:37.560Z,101465.47
2023-06-04T15:59:06.366Z,101459.09
2023-06-04T16:01:34.066Z,101462.63
2023-06-04T16:04:02.332Z,101461.75
2023-06-04T16:06:32.814Z,101455.66
2023-06-04T16:09:01.485Z,101461.25
2023-06-04T16:11:30.586Z,101454.22
2023-06-04T16:13:58.436Z,101453.69
2023-06-04T16:16:26.160Z,101446.44
2023-06-04T16:18:53.885Z,101440.44
2023-06-04T16:21:23.395Z,101437.13
2023-06-04T16:23:51.027Z,101429.44
2023-06-04T16:26:19.377Z,101429.25
2023-06-04T16:28:48.509Z,101433.06
2023-06-04T16:31:20.457Z,101430.09
2023-06-04T16:33:48.112Z,101426.53
2023-06-04T16:36:16.874Z,101422.78
2023-06-04T16:38:44.469Z,101428.22
2023-06-04T16:41:17.773Z,101428.19
2023-06-04T16:43:45.878Z,101426.09
2023-06-04T16:46:15.168Z,101416.50
2023-06-04T16:48:42.875Z,101418.97
2023-06-04T16:51:10.603Z,101429.16
2023-06-04T16:53:38.252Z,101425.38
2023-06-04T16:56:06.017Z,101425.34
2023-06-04T16:58:36.390Z,101423.47
2023-06-04T17:01:04.101Z,101425.94
2023-06-04T17:03:34.167Z,101429.09
2023-06-04T17:06:02.479Z,101426.97
2023-06-04T17:08:30.926Z,101433.22
2023-06-04T17:11:01.974Z,101425.88
2023-06-04T17:13:29.689Z,101428.34
2023-06-04T17:15:57.272Z,101420.81
2023-06-04T17:18:24.910Z,101427.72
2023-06-04T17:20:54.020Z,101423.72
2023-06-04T17:26:15.547Z,101429.09
2023-06-04T17:28:44.414Z,101421.53
2023-06-04T17:31:13.781Z,101433.44
2023-06-04T17:33:41.884Z,101423.16
2023-06-04T17:36:10.914Z,101426.91
2023-06-04T17:38:42.385Z,101426.69
2023-06-04T17:41:10.850Z,101429.97
2023-06-04T17:43:40.127Z,101432.28
2023-06-04T17:46:08.242Z,101426.19
2023-06-04T17:48:37.406Z,101426.81
2023-06-04T17:51:05.901Z,101428.84
2023-06-04T17:53:34.997Z,101430.09
2023-06-04T17:56:03.005Z,101428.44
2023-06-04T17:58:31.570Z,101432.38
2023-06-04T18:00:59.938Z,101431.53
2023-06-04T18:03:29.734Z,101432.56
2023-06-04T18:05:57.356Z,101435.06
2023-06-04T18:08:25.326Z,101435.28
2023-06-04T18:10:54.721Z,101438.84
2023-06-04T18:13:23.542Z,101429.44
2023-06-04T18:15:51.187Z,101435.13
2023-06-04T18:18:19.076Z,101429.31
2023-06-04T18:20:46.973Z,101437.69
2023-06-04T18:23:15.534Z,101437.06
2023-06-04T18:25:43.179Z,101436.69
2023-06-04T18:28:12.161Z,101430.69
2023-06-04T18:30:41.568Z,101434.66
2023-06-04T18:33:09.293Z,101444.94
2023-06-04T18:35:37.382Z,101435.38
2023-06-04T18:38:07.669Z,101445.63
2023-06-04T18:40:35.367Z,101437.06
2023-06-04T18:43:04.438Z,101435.16
2023-06-04T18:45:33.582Z,101436.78
2023-06-04T18:48:01.503Z,101439.44
2023-06-04T18:50:29.348Z,101441.50
2023-06-04T18:52:59.414Z,101444.34
2023-06-04T18:55:27.031Z,101443.00
2023-06-04T18:57:54.835Z,101446.09
2023-06-04T19:00:22.809Z,101438.28
2023-06-04T19:02:51.956Z,101439.66
2023-06-04T19:05:19.995Z,101440.44
2023-06-04T19:07:47.996Z,101448.69
2023-06-04T19:10:16.069Z,101449.81
2023-06-04T19:12:43.871Z,101452.88
2023-06-04T19:15:12.123Z,101452.16
2023-06-04T19:17:39.843Z,101453.53
2023-06-04T19:20:09.991Z,101455.03
2023-06-04T19:22:37.660Z,101456.19
2023-06-04T19:25:05.694Z,101458.53
2023-06-04T19:27:33.354Z,101456.69
2023-06-04T19:30:00.950Z,101463.56
2023-06-04T19:32:30.514Z,101458.19
2023-06-04T19:34:58.989Z,101457.16
2023-06-04T19:37:27.972Z,101459.47
2023-06-04T19:39:55.590Z,101467.38
2023-06-04T19:42:24.273Z,101462.56
2023-06-04T19:44:51.977Z,101470.47
2023-06-04T19:47:19.667Z,101464.00
2023-06-04T19:49:47.887Z,101476.25
2023-06-04T19:52:15.498Z,101478.88
2023-06-04T19:54:44.507Z,101484.88
2023-06-04T19:57:12.143Z,101483.59
2023-06-04T19:59:40.864Z,101494.75
2023-06-04T20:02:09.486Z,101496.81
2023-06-04T20:04:38.345Z,101498.53
2023-06-04T20:07:08.519Z,101502.97
2023-06-04T20:09:36.654Z,101512.59
2023-06-04T20:12:08.552Z,101507.06
2023-06-04T20:14:36.212Z,101511.09
2023-06-04T20:17:03.997Z,101515.34
2023-06-04T20:19:31.708Z,101518.53
2023-06-04T20:21:59.292Z,101526.34
2023-06-04T20:24:27.890Z,101527.69
2023-06-04T20:26:55.899Z,101533.59
2023-06-04T20:29:24.940Z,101528.88
2023-06-04T20:31:52.636Z,101536.50
2023-06-04T20:34:22.644Z,101532.63
2023-06-04T20:36:53.430Z,101534.97
2023-06-04T20:39:21.326Z,101534.78
2023-06-04T20:41:49.172Z,101546.06
2023-06-04T20:44:18.881Z,101547.75
2023-06-04T20:46:48.878Z,101557.50
2023-06-04T20:49:16.556Z,101549.09
2023-06-04T20:51:44.575Z,101550.59
2023-06-04T20:54:12.581Z,101556.31
2023-06-04T20:56:40.342Z,101552.44
2023-06-04T20:59:08.005Z,101556.63
2023-06-04T21:01:35.735Z,101554.59
2023-06-04T21:04:05.226Z,101562.19
2023-06-04T21:06:33.155Z,101562.84
2023-06-04T21:09:00.802Z,101570.41
2023-06-04T21:11:28.620Z,101569.22
2023-06-04T21:13:59.421Z,101562.63
2023-06-04T21:16:27.116Z,101563.94
2023-06-04T21:18:54.840Z,101569.84
2023-06-04T21:21:23.835Z,101571.34
2023-06-04T21:23:51.520Z,101578.00
2023-06-04T21:26:21.228Z,101575.81
2023-06-04T21:28:49.069Z,101576.28
2023-06-04T21:31:16.714Z,101584.16
2023-06-04T21:33:44.909Z,101580.44
2023-06-04T21:36:15.441Z,101583.09
2023-06-04T21:38:44.513Z,101581.03
2023-06-04T21:41:12.149Z,101589.59
2023-06-04T21:43:39.747Z,101579.63
2023-06-04T21:46:07.920Z,101581.25
2023-06-04T21:48:35.579Z,101589.09
2023-06-04T21:51:03.204Z,101585.19
2023-06-04T21:53:34.485Z,101583.00
2023-06-04T21:56:04.514Z,101585.16
2023-06-04T21:58:32.135Z,101587.47
2023-06-04T22:00:59.754Z,101584.38
2023-06-04T22:03:27.765Z,101588.41
2023-06-04T22:05:55.741Z,101581.81
2023-06-04T22:08:23.411Z,101590.31
2023-06-04T22:10:51.275Z,101588.25
2023-06-04T22:13:20.366Z,101591.53
2023-06-04T22:15:48.009Z,101584.94
2023-06-04T22:18:15.775Z,101593.47
2023-06-04T22:20:43.452Z,101589.53
2023-06-04T22:23:11.054Z,101587.63
2023-06-04T22:25:38.611Z,101596.31
2023-06-04T22:28:06.255Z,101600.72
2023-06-04T22:30:35.331Z,101602.50
2023-06-04T22:33:04.599Z,101602.09
2023-06-04T22:35:32.370Z,101600.69
2023-06-04T22:38:00.505Z,101597.63
2023-06-04T22:40:29.179Z,101597.09
2023-06-04T22:42:57.167Z,101597.38
2023-06-04T22:45:24.954Z,101596.13
2023-06-04T22:47:53.966Z,101591.34
2023-06-04T22:50:22.102Z,101595.47
2023-06-04T22:52:49.849Z,101588.91
2023-06-04T22:55:18.309Z,101588.31
2023-06-04T22:57:46.228Z,101587.75
2023-06-04T23:00:14.729Z,101589.91
2023-06-04T23:02:42.756Z,101592.88
2023-06-04T23:05:12.121Z,101603.91
2023-06-04T23:07:40.885Z,101593.59
2023-06-04T23:10:11.423Z,101594.72
2023-06-04T23:12:43.849Z,101594.34
2023-06-04T23:15:21.425Z,101600.16
2023-06-04T23:17:50.928Z,101608.63
2023-06-04T23:20:20.481Z,101598.31
2023-06-04T23:22:48.056Z,101608.63
2023-06-04T23:25:19.758Z,101604.56
2023-06-04T23:27:47.437Z,101609.53
2023-06-04T23:30:18.431Z,101606.41
2023-06-04T23:32:46.292Z,101612.09
2023-06-04T23:35:17.941Z,101613.50
2023-06-04T23:37:46.969Z,101613.91
2023-06-04T23:40:15.097Z,101616.03
2023-06-04T23:42:42.769Z,101615.59
2023-06-04T23:45:12.945Z,101617.75
2023-06-04T23:47:40.974Z,101612.81
2023-06-04T23:50:09.208Z,101618.56
2023-06-04T23:52:36.948Z,101615.34
2023-06-04T23:55:06.429Z,101620.28
2023-06-04T23:57:34.112Z,101616.34
